sensor_id;sensor_type;location;lat;lon;timestamp;P1;durP1;ratioP1;P2;durP2;ratioP2
19030;SDS011;9648;51.130;13.978;2024-03-22T00:02:54;13.10;;;8.40;;
19030;SDS011;9648;51.130;13.978;2024-03-22T00:05:56;16.23;;;9.97;;
19030;SDS011;9648;51.130;13.978;2024-03-22T00:08:58;16.35;;;9.45;;
19030;SDS011;9648;51.130;13.978;2024-03-22T00:11:58;15.43;;;9.23;;
19030;SDS011;9648;51.130;13.978;2024-03-22T00:15:00;18.17;;;10.05;;
19030;SDS011;9648;51.130;13.978;2024-03-22T00:18:01;15.13;;;10.00;;
19030;SDS011;9648;51.130;13.978;2024-03-22T00:21:04;14.77;;;8.75;;
19030;SDS011;9648;51.130;13.978;2024-03-22T00:24:04;16.42;;;9.27;;
19030;SDS011;9648;51.130;13.978;2024-03-22T00:27:06;14.52;;;8.13;;
19030;SDS011;9648;51.130;13.978;2024-03-22T00:30:07;14.07;;;8.07;;
19030;SDS011;9648;51.130;13.978;2024-03-22T00:33:09;13.50;;;8.38;;
19030;SDS011;9648;51.130;13.978;2024-03-22T00:36:12;12.98;;;8.30;;
19030;SDS011;9648;51.130;13.978;2024-03-22T00:39:13;12.17;;;7.63;;
19030;SDS011;9648;51.130;13.978;2024-03-22T00:42:14;11.93;;;7.30;;
19030;SDS011;9648;51.130;13.978;2024-03-22T00:45:16;12.95;;;7.30;;
19030;SDS011;9648;51.130;13.978;2024-03-22T00:48:16;10.93;;;7.07;;
19030;SDS011;9648;51.130;13.978;2024-03-22T00:51:20;11.00;;;6.78;;
19030;SDS011;9648;51.130;13.978;2024-03-22T00:54:20;12.07;;;7.45;;
19030;SDS011;9648;51.130;13.978;2024-03-22T00:57:22;12.05;;;7.22;;
19030;SDS011;9648;51.130;13.978;2024-03-22T01:00:23;12.27;;;7.90;;
19030;SDS011;9648;51.130;13.978;2024-03-22T01:03:25;15.50;;;8.63;;
19030;SDS011;9648;51.130;13.978;2024-03-22T01:06:27;14.95;;;8.35;;
19030;SDS011;9648;51.130;13.978;2024-03-22T01:09:29;15.20;;;8.40;;
19030;SDS011;9648;51.130;13.978;2024-03-22T01:12:29;16.02;;;8.70;;
19030;SDS011;9648;51.130;13.978;2024-03-22T01:15:31;16.08;;;9.05;;
19030;SDS011;9648;51.130;13.978;2024-03-22T01:18:32;16.10;;;9.05;;
19030;SDS011;9648;51.130;13.978;2024-03-22T01:21:35;14.07;;;8.98;;
19030;SDS011;9648;51.130;13.978;2024-03-22T01:24:36;14.60;;;8.32;;
19030;SDS011;9648;51.130;13.978;2024-03-22T01:27:37;14.38;;;8.80;;
19030;SDS011;9648;51.130;13.978;2024-03-22T01:30:38;14.03;;;8.83;;
19030;SDS011;9648;51.130;13.978;2024-03-22T01:33:39;14.35;;;8.75;;
19030;SDS011;9648;51.130;13.978;2024-03-22T01:36:42;15.32;;;9.95;;
19030;SDS011;9648;51.130;13.978;2024-03-22T01:39:43;14.95;;;9.07;;
19030;SDS011;9648;51.130;13.978;2024-03-22T01:42:44;13.23;;;8.30;;
19030;SDS011;9648;51.130;13.978;2024-03-22T01:45:45;14.45;;;8.82;;
19030;SDS011;9648;51.130;13.978;2024-03-22T01:48:46;13.10;;;7.97;;
19030;SDS011;9648;51.130;13.978;2024-03-22T01:51:52;14.07;;;8.95;;
19030;SDS011;9648;51.130;13.978;2024-03-22T01:54:53;15.82;;;9.23;;
19030;SDS011;9648;51.130;13.978;2024-03-22T01:57:55;14.25;;;8.13;;
19030;SDS011;9648;51.130;13.978;2024-03-22T02:00:56;12.95;;;8.38;;
19030;SDS011;9648;51.130;13.978;2024-03-22T02:03:58;12.43;;;7.85;;
19030;SDS011;9648;51.130;13.978;2024-03-22T02:07:00;14.17;;;8.73;;
19030;SDS011;9648;51.130;13.978;2024-03-22T02:10:02;15.68;;;9.60;;
19030;SDS011;9648;51.130;13.978;2024-03-22T02:13:03;12.88;;;8.05;;
19030;SDS011;9648;51.130;13.978;2024-03-22T02:16:05;14.18;;;8.45;;
19030;SDS011;9648;51.130;13.978;2024-03-22T02:19:06;12.53;;;7.70;;
19030;SDS011;9648;51.130;13.978;2024-03-22T02:22:09;11.15;;;7.22;;
19030;SDS011;9648;51.130;13.978;2024-03-22T02:25:10;13.48;;;7.93;;
19030;SDS011;9648;51.130;13.978;2024-03-22T02:28:12;13.10;;;8.05;;
19030;SDS011;9648;51.130;13.978;2024-03-22T02:31:13;14.53;;;8.67;;
19030;SDS011;9648;51.130;13.978;2024-03-22T02:34:14;11.70;;;7.70;;
19030;SDS011;9648;51.130;13.978;2024-03-22T02:37:15;12.60;;;7.15;;
19030;SDS011;9648;51.130;13.978;2024-03-22T02:40:18;10.70;;;7.07;;
19030;SDS011;9648;51.130;13.978;2024-03-22T02:43:19;10.45;;;6.38;;
19030;SDS011;9648;51.130;13.978;2024-03-22T02:46:21;9.60;;;5.78;;
19030;SDS011;9648;51.130;13.978;2024-03-22T02:49:22;9.97;;;6.00;;
19030;SDS011;9648;51.130;13.978;2024-03-22T02:52:23;9.70;;;5.83;;
19030;SDS011;9648;51.130;13.978;2024-03-22T02:55:26;7.97;;;4.85;;
19030;SDS011;9648;51.130;13.978;2024-03-22T02:58:27;7.85;;;4.72;;
19030;SDS011;9648;51.130;13.978;2024-03-22T03:01:28;9.57;;;5.63;;
19030;SDS011;9648;51.130;13.978;2024-03-22T03:04:29;8.88;;;5.22;;
19030;SDS011;9648;51.130;13.978;2024-03-22T03:07:30;7.35;;;5.05;;
19030;SDS011;9648;51.130;13.978;2024-03-22T03:10:32;7.73;;;5.30;;
19030;SDS011;9648;51.130;13.978;2024-03-22T03:13:34;8.60;;;5.35;;
19030;SDS011;9648;51.130;13.978;2024-03-22T03:16:34;8.57;;;5.00;;
19030;SDS011;9648;51.130;13.978;2024-03-22T03:19:36;9.02;;;4.93;;
19030;SDS011;9648;51.130;13.978;2024-03-22T03:22:37;7.70;;;4.85;;
19030;SDS011;9648;51.130;13.978;2024-03-22T03:25:40;8.70;;;5.70;;
19030;SDS011;9648;51.130;13.978;2024-03-22T03:28:40;7.28;;;5.00;;
19030;SDS011;9648;51.130;13.978;2024-03-22T03:31:42;8.82;;;5.40;;
19030;SDS011;9648;51.130;13.978;2024-03-22T03:34:42;11.17;;;5.97;;
19030;SDS011;9648;51.130;13.978;2024-03-22T03:37:44;8.80;;;5.97;;
19030;SDS011;9648;51.130;13.978;2024-03-22T03:40:47;10.38;;;6.10;;
19030;SDS011;9648;51.130;13.978;2024-03-22T03:43:50;8.25;;;5.05;;
19030;SDS011;9648;51.130;13.978;2024-03-22T03:46:51;10.25;;;5.78;;
19030;SDS011;9648;51.130;13.978;2024-03-22T03:49:52;10.23;;;6.13;;
19030;SDS011;9648;51.130;13.978;2024-03-22T03:52:53;12.20;;;7.80;;
19030;SDS011;9648;51.130;13.978;2024-03-22T03:55:55;11.67;;;7.07;;
19030;SDS011;9648;51.130;13.978;2024-03-22T03:58:57;12.00;;;6.68;;
19030;SDS011;9648;51.130;13.978;2024-03-22T04:01:57;9.33;;;5.60;;
19030;SDS011;9648;51.130;13.978;2024-03-22T04:04:59;8.87;;;5.70;;
19030;SDS011;9648;51.130;13.978;2024-03-22T04:07:59;9.60;;;5.90;;
19030;SDS011;9648;51.130;13.978;2024-03-22T04:11:02;9.38;;;6.00;;
19030;SDS011;9648;51.130;13.978;2024-03-22T04:14:03;10.13;;;6.22;;
19030;SDS011;9648;51.130;13.978;2024-03-22T04:17:05;11.07;;;6.47;;
19030;SDS011;9648;51.130;13.978;2024-03-22T04:20:06;9.77;;;6.00;;
19030;SDS011;9648;51.130;13.978;2024-03-22T04:23:08;9.32;;;5.80;;
19030;SDS011;9648;51.130;13.978;2024-03-22T04:26:10;9.50;;;5.32;;
19030;SDS011;9648;51.130;13.978;2024-03-22T04:29:12;10.17;;;5.90;;
19030;SDS011;9648;51.130;13.978;2024-03-22T04:32:13;9.85;;;5.72;;
19030;SDS011;9648;51.130;13.978;2024-03-22T04:35:14;10.00;;;6.07;;
19030;SDS011;9648;51.130;13.978;2024-03-22T04:38:15;7.23;;;5.33;;
19030;SDS011;9648;51.130;13.978;2024-03-22T04:41:18;8.82;;;5.50;;
19030;SDS011;9648;51.130;13.978;2024-03-22T04:44:19;9.50;;;5.72;;
19030;SDS011;9648;51.130;13.978;2024-03-22T04:47:21;8.57;;;5.40;;
19030;SDS011;9648;51.130;13.978;2024-03-22T04:50:21;9.82;;;5.90;;
19030;SDS011;9648;51.130;13.978;2024-03-22T04:53:23;8.70;;;5.22;;
19030;SDS011;9648;51.130;13.978;2024-03-22T04:56:26;9.95;;;5.75;;
19030;SDS011;9648;51.130;13.978;2024-03-22T04:59:26;10.73;;;6.15;;
19030;SDS011;9648;51.130;13.978;2024-03-22T05:02:28;10.90;;;6.25;;
19030;SDS011;9648;51.130;13.978;2024-03-22T05:05:29;9.63;;;6.18;;
19030;SDS011;9648;51.130;13.978;2024-03-22T05:08:31;9.65;;;6.05;;
19030;SDS011;9648;51.130;13.978;2024-03-22T05:11:36;9.40;;;6.03;;
19030;SDS011;9648;51.130;13.978;2024-03-22T05:14:37;10.93;;;6.55;;
19030;SDS011;9648;51.130;13.978;2024-03-22T05:17:38;11.15;;;6.10;;
19030;SDS011;9648;51.130;13.978;2024-03-22T05:20:39;10.57;;;6.20;;
19030;SDS011;9648;51.130;13.978;2024-03-22T05:23:41;10.60;;;6.15;;
19030;SDS011;9648;51.130;13.978;2024-03-22T05:26:43;10.93;;;6.70;;
19030;SDS011;9648;51.130;13.978;2024-03-22T05:29:44;13.30;;;7.40;;
19030;SDS011;9648;51.130;13.978;2024-03-22T05:32:45;11.38;;;6.78;;
19030;SDS011;9648;51.130;13.978;2024-03-22T05:35:46;11.23;;;7.20;;
19030;SDS011;9648;51.130;13.978;2024-03-22T05:38:47;12.05;;;6.43;;
19030;SDS011;9648;51.130;13.978;2024-03-22T05:41:51;12.73;;;7.72;;
19030;SDS011;9648;51.130;13.978;2024-03-22T05:44:51;14.18;;;8.63;;
19030;SDS011;9648;51.130;13.978;2024-03-22T05:47:55;17.77;;;9.73;;
19030;SDS011;9648;51.130;13.978;2024-03-22T05:50:56;17.05;;;10.23;;
19030;SDS011;9648;51.130;13.978;2024-03-22T05:53:57;16.65;;;10.13;;
19030;SDS011;9648;51.130;13.978;2024-03-22T05:57:00;20.17;;;11.23;;
19030;SDS011;9648;51.130;13.978;2024-03-22T06:00:01;20.10;;;11.30;;
19030;SDS011;9648;51.130;13.978;2024-03-22T06:03:03;20.07;;;11.50;;
19030;SDS011;9648;51.130;13.978;2024-03-22T06:06:05;16.67;;;10.38;;
19030;SDS011;9648;51.130;13.978;2024-03-22T06:09:05;14.20;;;9.30;;
19030;SDS011;9648;51.130;13.978;2024-03-22T06:12:10;14.98;;;9.15;;
19030;SDS011;9648;51.130;13.978;2024-03-22T06:15:11;13.23;;;8.52;;
19030;SDS011;9648;51.130;13.978;2024-03-22T06:18:13;15.88;;;10.00;;
19030;SDS011;9648;51.130;13.978;2024-03-22T06:21:14;13.57;;;9.07;;
19030;SDS011;9648;51.130;13.978;2024-03-22T06:24:15;15.10;;;9.68;;
19030;SDS011;9648;51.130;13.978;2024-03-22T06:27:18;13.52;;;9.25;;
19030;SDS011;9648;51.130;13.978;2024-03-22T06:30:18;14.47;;;9.53;;
19030;SDS011;9648;51.130;13.978;2024-03-22T06:33:20;15.50;;;9.40;;
19030;SDS011;9648;51.130;13.978;2024-03-22T06:36:21;16.83;;;10.90;;
19030;SDS011;9648;51.130;13.978;2024-03-22T06:39:22;15.25;;;9.65;;
19030;SDS011;9648;51.130;13.978;2024-03-22T06:42:24;13.80;;;9.70;;
19030;SDS011;9648;51.130;13.978;2024-03-22T06:45:27;14.00;;;8.90;;
19030;SDS011;9648;51.130;13.978;2024-03-22T06:48:29;13.23;;;8.38;;
19030;SDS011;9648;51.130;13.978;2024-03-22T06:51:30;13.67;;;8.90;;
19030;SDS011;9648;51.130;13.978;2024-03-22T06:54:32;14.68;;;9.25;;
19030;SDS011;9648;51.130;13.978;2024-03-22T06:57:35;13.00;;;8.77;;
19030;SDS011;9648;51.130;13.978;2024-03-22T07:00:37;10.40;;;8.13;;
19030;SDS011;9648;51.130;13.978;2024-03-22T07:03:38;11.85;;;7.75;;
19030;SDS011;9648;51.130;13.978;2024-03-22T07:06:40;11.82;;;8.13;;
19030;SDS011;9648;51.130;13.978;2024-03-22T07:09:42;12.10;;;8.20;;
19030;SDS011;9648;51.130;13.978;2024-03-22T07:12:45;12.38;;;8.10;;
19030;SDS011;9648;51.130;13.978;2024-03-22T07:15:46;14.20;;;8.88;;
19030;SDS011;9648;51.130;13.978;2024-03-22T07:18:51;11.48;;;7.63;;
19030;SDS011;9648;51.130;13.978;2024-03-22T07:21:51;13.20;;;8.40;;
19030;SDS011;9648;51.130;13.978;2024-03-22T07:24:53;12.07;;;7.97;;
19030;SDS011;9648;51.130;13.978;2024-03-22T07:27:56;12.43;;;7.53;;
19030;SDS011;9648;51.130;13.978;2024-03-22T07:30:57;13.13;;;8.68;;
19030;SDS011;9648;51.130;13.978;2024-03-22T07:33:58;11.48;;;8.00;;
19030;SDS011;9648;51.130;13.978;2024-03-22T07:37:00;10.07;;;6.60;;
19030;SDS011;9648;51.130;13.978;2024-03-22T07:40:01;11.43;;;7.33;;
19030;SDS011;9648;51.130;13.978;2024-03-22T07:43:04;12.10;;;8.15;;
19030;SDS011;9648;51.130;13.978;2024-03-22T07:46:06;11.90;;;7.60;;
19030;SDS011;9648;51.130;13.978;2024-03-22T07:49:08;13.88;;;8.70;;
19030;SDS011;9648;51.130;13.978;2024-03-22T07:52:08;12.43;;;8.43;;
19030;SDS011;9648;51.130;13.978;2024-03-22T07:55:10;13.63;;;8.32;;
19030;SDS011;9648;51.130;13.978;2024-03-22T07:58:12;12.87;;;9.10;;
19030;SDS011;9648;51.130;13.978;2024-03-22T08:01:13;16.00;;;8.85;;
19030;SDS011;9648;51.130;13.978;2024-03-22T08:04:14;14.38;;;9.40;;
19030;SDS011;9648;51.130;13.978;2024-03-22T08:07:16;14.75;;;9.30;;
19030;SDS011;9648;51.130;13.978;2024-03-22T08:10:17;15.23;;;9.15;;
19030;SDS011;9648;51.130;13.978;2024-03-22T08:13:20;13.82;;;8.55;;
19030;SDS011;9648;51.130;13.978;2024-03-22T08:16:23;13.63;;;8.80;;
19030;SDS011;9648;51.130;13.978;2024-03-22T08:19:24;13.63;;;8.43;;
19030;SDS011;9648;51.130;13.978;2024-03-22T08:22:26;14.60;;;9.40;;
19030;SDS011;9648;51.130;13.978;2024-03-22T08:25:26;12.13;;;8.40;;
19030;SDS011;9648;51.130;13.978;2024-03-22T08:28:29;13.57;;;9.00;;
19030;SDS011;9648;51.130;13.978;2024-03-22T08:31:30;13.32;;;8.57;;
19030;SDS011;9648;51.130;13.978;2024-03-22T08:34:31;13.80;;;9.33;;
19030;SDS011;9648;51.130;13.978;2024-03-22T08:37:33;13.55;;;8.80;;
19030;SDS011;9648;51.130;13.978;2024-03-22T08:40:33;14.73;;;9.35;;
19030;SDS011;9648;51.130;13.978;2024-03-22T08:43:36;17.23;;;9.82;;
19030;SDS011;9648;51.130;13.978;2024-03-22T08:46:38;17.60;;;10.67;;
19030;SDS011;9648;51.130;13.978;2024-03-22T08:49:38;18.63;;;11.10;;
19030;SDS011;9648;51.130;13.978;2024-03-22T08:52:41;18.67;;;11.77;;
19030;SDS011;9648;51.130;13.978;2024-03-22T08:55:45;17.13;;;10.47;;
19030;SDS011;9648;51.130;13.978;2024-03-22T08:58:49;20.03;;;11.73;;
19030;SDS011;9648;51.130;13.978;2024-03-22T09:01:50;15.87;;;10.83;;
19030;SDS011;9648;51.130;13.978;2024-03-22T09:04:51;16.03;;;10.47;;
19030;SDS011;9648;51.130;13.978;2024-03-22T09:07:53;18.70;;;11.13;;
19030;SDS011;9648;51.130;13.978;2024-03-22T09:10:55;18.23;;;10.73;;
19030;SDS011;9648;51.130;13.978;2024-03-22T09:13:57;19.10;;;12.00;;
19030;SDS011;9648;51.130;13.978;2024-03-22T09:16:59;18.95;;;11.45;;
19030;SDS011;9648;51.130;13.978;2024-03-22T09:19:59;17.77;;;10.50;;
19030;SDS011;9648;51.130;13.978;2024-03-22T09:23:01;17.17;;;10.43;;
19030;SDS011;9648;51.130;13.978;2024-03-22T09:26:01;14.67;;;9.03;;
19030;SDS011;9648;51.130;13.978;2024-03-22T09:29:04;16.23;;;9.95;;
19030;SDS011;9648;51.130;13.978;2024-03-22T09:32:05;15.02;;;9.25;;
19030;SDS011;9648;51.130;13.978;2024-03-22T09:35:07;15.88;;;9.88;;
19030;SDS011;9648;51.130;13.978;2024-03-22T09:38:09;18.23;;;10.35;;
19030;SDS011;9648;51.130;13.978;2024-03-22T09:41:09;15.65;;;9.80;;
19030;SDS011;9648;51.130;13.978;2024-03-22T09:44:14;16.33;;;9.15;;
19030;SDS011;9648;51.130;13.978;2024-03-22T09:47:19;13.43;;;9.27;;
19030;SDS011;9648;51.130;13.978;2024-03-22T09:50:21;12.77;;;8.43;;
19030;SDS011;9648;51.130;13.978;2024-03-22T09:53:22;14.70;;;9.05;;
19030;SDS011;9648;51.130;13.978;2024-03-22T09:56:23;15.10;;;9.47;;
19030;SDS011;9648;51.130;13.978;2024-03-22T09:59:26;13.95;;;9.57;;
19030;SDS011;9648;51.130;13.978;2024-03-22T10:02:27;11.38;;;8.18;;
19030;SDS011;9648;51.130;13.978;2024-03-22T10:05:28;12.50;;;7.50;;
19030;SDS011;9648;51.130;13.978;2024-03-22T10:08:38;10.15;;;7.22;;
19030;SDS011;9648;51.130;13.978;2024-03-22T10:11:39;11.75;;;7.45;;
19030;SDS011;9648;51.130;13.978;2024-03-22T10:14:43;12.57;;;8.03;;
19030;SDS011;9648;51.130;13.978;2024-03-22T10:17:45;11.32;;;7.57;;
19030;SDS011;9648;51.130;13.978;2024-03-22T10:20:50;10.77;;;7.25;;
19030;SDS011;9648;51.130;13.978;2024-03-22T10:23:59;13.32;;;8.40;;
19030;SDS011;9648;51.130;13.978;2024-03-22T10:27:01;12.18;;;8.25;;
19030;SDS011;9648;51.130;13.978;2024-03-22T10:30:03;11.77;;;7.28;;
19030;SDS011;9648;51.130;13.978;2024-03-22T10:33:07;15.30;;;9.60;;
19030;SDS011;9648;51.130;13.978;2024-03-22T10:36:10;14.75;;;9.63;;
19030;SDS011;9648;51.130;13.978;2024-03-22T10:39:10;14.43;;;9.37;;
19030;SDS011;9648;51.130;13.978;2024-03-22T10:42:14;13.48;;;8.82;;
19030;SDS011;9648;51.130;13.978;2024-03-22T10:45:17;13.88;;;9.52;;
19030;SDS011;9648;51.130;13.978;2024-03-22T10:48:22;10.10;;;7.20;;
19030;SDS011;9648;51.130;13.978;2024-03-22T10:51:25;11.63;;;7.80;;
19030;SDS011;9648;51.130;13.978;2024-03-22T10:54:28;9.23;;;6.37;;
19030;SDS011;9648;51.130;13.978;2024-03-22T10:57:32;10.70;;;7.18;;
19030;SDS011;9648;51.130;13.978;2024-03-22T11:00:38;10.25;;;7.35;;
19030;SDS011;9648;51.130;13.978;2024-03-22T11:03:43;11.48;;;7.03;;
19030;SDS011;9648;51.130;13.978;2024-03-22T11:06:47;11.03;;;6.97;;
19030;SDS011;9648;51.130;13.978;2024-03-22T11:09:51;10.68;;;6.60;;
19030;SDS011;9648;51.130;13.978;2024-03-22T11:12:53;8.02;;;5.68;;
19030;SDS011;9648;51.130;13.978;2024-03-22T11:15:55;11.50;;;7.57;;
19030;SDS011;9648;51.130;13.978;2024-03-22T11:18:56;10.85;;;7.63;;
19030;SDS011;9648;51.130;13.978;2024-03-22T11:21:57;9.00;;;5.60;;
19030;SDS011;9648;51.130;13.978;2024-03-22T11:24:59;9.93;;;6.32;;
19030;SDS011;9648;51.130;13.978;2024-03-22T11:27:59;9.23;;;6.20;;
19030;SDS011;9648;51.130;13.978;2024-03-22T11:31:03;8.43;;;5.70;;
19030;SDS011;9648;51.130;13.978;2024-03-22T11:34:04;6.50;;;4.63;;
19030;SDS011;9648;51.130;13.978;2024-03-22T11:37:05;7.93;;;5.30;;
19030;SDS011;9648;51.130;13.978;2024-03-22T11:40:08;7.25;;;5.43;;
19030;SDS011;9648;51.130;13.978;2024-03-22T11:43:10;6.68;;;5.10;;
19030;SDS011;9648;51.130;13.978;2024-03-22T11:46:15;8.32;;;5.53;;
19030;SDS011;9648;51.130;13.978;2024-03-22T11:49:17;7.82;;;5.30;;
19030;SDS011;9648;51.130;13.978;2024-03-22T11:52:19;7.90;;;5.03;;
19030;SDS011;9648;51.130;13.978;2024-03-22T11:55:26;7.30;;;5.20;;
19030;SDS011;9648;51.130;13.978;2024-03-22T11:58:28;8.68;;;5.72;;
19030;SDS011;9648;51.130;13.978;2024-03-22T12:01:31;8.38;;;5.95;;
19030;SDS011;9648;51.130;13.978;2024-03-22T12:04:31;7.70;;;5.13;;
19030;SDS011;9648;51.130;13.978;2024-03-22T12:07:33;7.35;;;4.75;;
19030;SDS011;9648;51.130;13.978;2024-03-22T12:10:34;6.00;;;4.30;;
19030;SDS011;9648;51.130;13.978;2024-03-22T12:13:36;6.28;;;4.70;;
19030;SDS011;9648;51.130;13.978;2024-03-22T12:16:38;8.35;;;5.28;;
19030;SDS011;9648;51.130;13.978;2024-03-22T12:19:40;8.73;;;5.45;;
19030;SDS011;9648;51.130;13.978;2024-03-22T12:22:41;7.33;;;5.10;;
19030;SDS011;9648;51.130;13.978;2024-03-22T12:25:43;10.82;;;7.18;;
19030;SDS011;9648;51.130;13.978;2024-03-22T12:28:43;9.63;;;7.18;;
19030;SDS011;9648;51.130;13.978;2024-03-22T12:31:46;9.23;;;6.45;;
19030;SDS011;9648;51.130;13.978;2024-03-22T12:34:47;6.97;;;5.05;;
19030;SDS011;9648;51.130;13.978;2024-03-22T12:37:51;6.57;;;4.57;;
19030;SDS011;9648;51.130;13.978;2024-03-22T12:40:51;7.33;;;4.90;;
19030;SDS011;9648;51.130;13.978;2024-03-22T12:43:53;7.27;;;5.00;;
19030;SDS011;9648;51.130;13.978;2024-03-22T12:46:55;7.43;;;5.17;;
19030;SDS011;9648;51.130;13.978;2024-03-22T12:49:56;7.20;;;4.78;;
19030;SDS011;9648;51.130;13.978;2024-03-22T12:52:58;6.27;;;4.33;;
19030;SDS011;9648;51.130;13.978;2024-03-22T12:55:58;6.33;;;4.77;;
19030;SDS011;9648;51.130;13.978;2024-03-22T12:58:59;8.82;;;5.43;;
19030;SDS011;9648;51.130;13.978;2024-03-22T13:02:01;5.13;;;4.27;;
19030;SDS011;9648;51.130;13.978;2024-03-22T13:05:03;6.87;;;3.73;;
19030;SDS011;9648;51.130;13.978;2024-03-22T13:08:05;9.00;;;5.70;;
19030;SDS011;9648;51.130;13.978;2024-03-22T13:11:07;7.13;;;4.65;;
19030;SDS011;9648;51.130;13.978;2024-03-22T13:14:09;7.07;;;4.82;;
19030;SDS011;9648;51.130;13.978;2024-03-22T13:17:12;8.53;;;5.20;;
19030;SDS011;9648;51.130;13.978;2024-03-22T13:20:12;7.90;;;5.18;;
19030;SDS011;9648;51.130;13.978;2024-03-22T13:23:15;7.68;;;5.35;;
19030;SDS011;9648;51.130;13.978;2024-03-22T13:26:15;9.90;;;5.97;;
19030;SDS011;9648;51.130;13.978;2024-03-22T13:29:17;9.80;;;7.03;;
19030;SDS011;9648;51.130;13.978;2024-03-22T13:32:19;11.35;;;6.88;;
19030;SDS011;9648;51.130;13.978;2024-03-22T13:35:21;9.60;;;6.25;;
19030;SDS011;9648;51.130;13.978;2024-03-22T13:38:21;9.20;;;5.97;;
19030;SDS011;9648;51.130;13.978;2024-03-22T13:41:23;10.47;;;5.97;;
19030;SDS011;9648;51.130;13.978;2024-03-22T13:44:24;9.57;;;6.28;;
19030;SDS011;9648;51.130;13.978;2024-03-22T13:47:27;7.90;;;5.47;;
19030;SDS011;9648;51.130;13.978;2024-03-22T13:50:28;8.45;;;5.80;;
19030;SDS011;9648;51.130;13.978;2024-03-22T13:53:29;8.47;;;5.40;;
19030;SDS011;9648;51.130;13.978;2024-03-22T13:56:31;10.25;;;6.30;;
19030;SDS011;9648;51.130;13.978;2024-03-22T13:59:31;10.87;;;6.47;;
19030;SDS011;9648;51.130;13.978;2024-03-22T14:02:35;10.27;;;6.85;;
19030;SDS011;9648;51.130;13.978;2024-03-22T14:05:35;9.23;;;5.85;;
19030;SDS011;9648;51.130;13.978;2024-03-22T14:08:37;12.75;;;7.32;;
19030;SDS011;9648;51.130;13.978;2024-03-22T14:11:37;8.00;;;6.07;;
19030;SDS011;9648;51.130;13.978;2024-03-22T14:14:39;7.07;;;5.38;;
19030;SDS011;9648;51.130;13.978;2024-03-22T14:17:41;11.05;;;7.15;;
19030;SDS011;9648;51.130;13.978;2024-03-22T14:20:43;10.68;;;6.72;;
19030;SDS011;9648;51.130;13.978;2024-03-22T14:23:44;8.57;;;6.47;;
19030;SDS011;9648;51.130;13.978;2024-03-22T14:26:45;11.57;;;7.43;;
19030;SDS011;9648;51.130;13.978;2024-03-22T14:29:47;10.00;;;6.55;;
19030;SDS011;9648;51.130;13.978;2024-03-22T14:32:50;10.80;;;6.63;;
19030;SDS011;9648;51.130;13.978;2024-03-22T14:35:52;10.30;;;6.93;;
19030;SDS011;9648;51.130;13.978;2024-03-22T14:38:53;10.70;;;6.73;;
19030;SDS011;9648;51.130;13.978;2024-03-22T14:41:54;9.32;;;5.80;;
19030;SDS011;9648;51.130;13.978;2024-03-22T14:44:55;9.97;;;6.53;;
19030;SDS011;9648;51.130;13.978;2024-03-22T14:47:58;9.65;;;7.10;;
19030;SDS011;9648;51.130;13.978;2024-03-22T14:50:59;11.32;;;6.80;;
19030;SDS011;9648;51.130;13.978;2024-03-22T14:54:00;8.30;;;6.00;;
19030;SDS011;9648;51.130;13.978;2024-03-22T14:57:01;10.13;;;6.75;;
19030;SDS011;9648;51.130;13.978;2024-03-22T15:00:03;10.30;;;7.07;;
19030;SDS011;9648;51.130;13.978;2024-03-22T15:03:11;9.82;;;6.53;;
19030;SDS011;9648;51.130;13.978;2024-03-22T15:06:12;8.48;;;5.97;;
19030;SDS011;9648;51.130;13.978;2024-03-22T15:09:13;8.77;;;6.23;;
19030;SDS011;9648;51.130;13.978;2024-03-22T15:12:15;11.65;;;6.70;;
19030;SDS011;9648;51.130;13.978;2024-03-22T15:15:16;10.95;;;7.53;;
19030;SDS011;9648;51.130;13.978;2024-03-22T15:18:18;10.80;;;7.07;;
19030;SDS011;9648;51.130;13.978;2024-03-22T15:21:20;10.10;;;7.40;;
19030;SDS011;9648;51.130;13.978;2024-03-22T15:24:22;10.15;;;6.85;;
19030;SDS011;9648;51.130;13.978;2024-03-22T15:27:23;9.63;;;7.00;;
19030;SDS011;9648;51.130;13.978;2024-03-22T15:30:27;10.33;;;7.47;;
19030;SDS011;9648;51.130;13.978;2024-03-22T15:33:29;10.05;;;6.78;;
19030;SDS011;9648;51.130;13.978;2024-03-22T15:36:31;12.25;;;7.93;;
19030;SDS011;9648;51.130;13.978;2024-03-22T15:39:31;11.05;;;6.90;;
19030;SDS011;9648;51.130;13.978;2024-03-22T15:42:33;11.20;;;8.10;;
19030;SDS011;9648;51.130;13.978;2024-03-22T15:45:34;11.97;;;8.23;;
19030;SDS011;9648;51.130;13.978;2024-03-22T15:48:38;11.83;;;8.73;;
19030;SDS011;9648;51.130;13.978;2024-03-22T15:51:38;14.93;;;10.23;;
19030;SDS011;9648;51.130;13.978;2024-03-22T15:54:41;10.80;;;7.97;;
19030;SDS011;9648;51.130;13.978;2024-03-22T15:57:42;13.48;;;7.93;;
19030;SDS011;9648;51.130;13.978;2024-03-22T16:00:44;9.48;;;6.82;;
19030;SDS011;9648;51.130;13.978;2024-03-22T16:03:47;9.97;;;7.17;;
19030;SDS011;9648;51.130;13.978;2024-03-22T16:06:48;10.80;;;7.18;;
19030;SDS011;9648;51.130;13.978;2024-03-22T16:09:49;10.88;;;6.70;;
19030;SDS011;9648;51.130;13.978;2024-03-22T16:12:51;12.60;;;8.10;;
19030;SDS011;9648;51.130;13.978;2024-03-22T16:15:51;9.53;;;7.43;;
19030;SDS011;9648;51.130;13.978;2024-03-22T16:18:54;9.00;;;7.23;;
19030;SDS011;9648;51.130;13.978;2024-03-22T16:21:55;11.48;;;7.35;;
19030;SDS011;9648;51.130;13.978;2024-03-22T16:24:56;12.90;;;8.13;;
19030;SDS011;9648;51.130;13.978;2024-03-22T16:27:57;10.40;;;7.40;;
19030;SDS011;9648;51.130;13.978;2024-03-22T16:30:58;10.05;;;7.13;;
19030;SDS011;9648;51.130;13.978;2024-03-22T16:34:00;14.02;;;8.48;;
19030;SDS011;9648;51.130;13.978;2024-03-22T16:37:02;11.55;;;8.07;;
19030;SDS011;9648;51.130;13.978;2024-03-22T16:40:02;12.60;;;8.93;;
19030;SDS011;9648;51.130;13.978;2024-03-22T16:43:04;14.40;;;9.65;;
19030;SDS011;9648;51.130;13.978;2024-03-22T16:46:05;13.63;;;9.50;;
19030;SDS011;9648;51.130;13.978;2024-03-22T16:49:08;12.85;;;8.48;;
19030;SDS011;9648;51.130;13.978;2024-03-22T16:52:09;10.85;;;7.88;;
19030;SDS011;9648;51.130;13.978;2024-03-22T16:55:11;13.13;;;9.13;;
19030;SDS011;9648;51.130;13.978;2024-03-22T16:58:13;12.82;;;8.93;;
19030;SDS011;9648;51.130;13.978;2024-03-22T17:01:14;13.57;;;8.20;;
19030;SDS011;9648;51.130;13.978;2024-03-22T17:04:17;10.27;;;7.13;;
19030;SDS011;9648;51.130;13.978;2024-03-22T17:07:20;12.52;;;8.30;;
19030;SDS011;9648;51.130;13.978;2024-03-22T17:10:21;10.82;;;8.63;;
19030;SDS011;9648;51.130;13.978;2024-03-22T17:13:22;13.48;;;8.85;;
19030;SDS011;9648;51.130;13.978;2024-03-22T17:16:23;10.68;;;8.52;;
19030;SDS011;9648;51.130;13.978;2024-03-22T17:19:26;11.95;;;8.18;;
19030;SDS011;9648;51.130;13.978;2024-03-22T17:22:27;12.45;;;9.82;;
19030;SDS011;9648;51.130;13.978;2024-03-22T17:25:28;16.20;;;11.32;;
19030;SDS011;9648;51.130;13.978;2024-03-22T17:28:29;13.27;;;9.77;;
19030;SDS011;9648;51.130;13.978;2024-03-22T17:31:30;16.30;;;11.67;;
19030;SDS011;9648;51.130;13.978;2024-03-22T17:34:34;15.43;;;10.48;;
19030;SDS011;9648;51.130;13.978;2024-03-22T17:37:34;15.38;;;11.55;;
19030;SDS011;9648;51.130;13.978;2024-03-22T17:40:36;19.93;;;13.73;;
19030;SDS011;9648;51.130;13.978;2024-03-22T17:43:37;17.92;;;11.88;;
19030;SDS011;9648;51.130;13.978;2024-03-22T17:46:39;19.20;;;13.63;;
19030;SDS011;9648;51.130;13.978;2024-03-22T17:49:41;17.60;;;12.57;;
19030;SDS011;9648;51.130;13.978;2024-03-22T17:52:42;16.15;;;11.00;;
19030;SDS011;9648;51.130;13.978;2024-03-22T17:55:43;21.63;;;13.23;;
19030;SDS011;9648;51.130;13.978;2024-03-22T17:58:44;17.35;;;11.82;;
19030;SDS011;9648;51.130;13.978;2024-03-22T18:01:46;18.95;;;12.32;;